Time;durP1;ratioP1;P1;durP2;ratioP2;P2;SDS_P1;SDS_P2;PMS_P1;PMS_P2;Temp;Humidity;BMP_temperature;BMP_pressure;BME280_temperature;BME280_humidity;BME280_pressure;Samples;Min_cycle;Max_cycle;Signal;HPM_P1;HPM_P2
2022/07/22 00:00:23;;;;;;;0.00;0.00;;;16.20;83.40;;;;;;5050932;28;20037;-67
2022/07/22 00:02:49;;;;;;;0.00;0.00;;;16.20;83.40;;;;;;5065423;28;20063;-67
2022/07/22 00:05:14;;;;;;;0.00;0.00;;;16.20;83.50;;;;;;5060585;28;20512;-66
2022/07/22 00:07:40;;;;;;;0.03;0.03;;;16.30;83.50;;;;;;5061223;28;20531;-67
2022/07/22 00:10:07;;;;;;;0.00;0.00;;;16.30;83.60;;;;;;5069405;28;20555;-67
2022/07/22 00:12:34;;;;;;;0.20;0.20;;;16.30;83.50;;;;;;5069325;28;20083;-67
2022/07/22 00:14:59;;;;;;;0.10;0.10;;;16.40;83.60;;;;;;5053402;28;20421;-67
2022/07/22 00:17:25;;;;;;;1.55;0.73;;;16.30;83.60;;;;;;5049199;28;20068;-67
2022/07/22 00:19:51;;;;;;;0.00;0.00;;;16.30;83.70;;;;;;5067241;28;20204;-66
2022/07/22 00:22:16;;;;;;;0.00;0.00;;;16.30;83.80;;;;;;5067794;28;20239;-67
2022/07/22 00:24:42;;;;;;;0.00;0.00;;;16.20;83.60;;;;;;5057583;28;20175;-67
2022/07/22 00:27:07;;;;;;;0.00;0.00;;;16.30;83.90;;;;;;5057831;28;20493;-67
2022/07/22 00:29:33;;;;;;;0.00;0.00;;;16.30;84.00;;;;;;5061457;28;20109;-67
2022/07/22 00:31:59;;;;;;;0.00;0.00;;;16.40;83.90;;;;;;5049043;28;20041;-67
2022/07/22 00:34:24;;;;;;;0.00;0.00;;;16.30;83.90;;;;;;5051200;28;20503;-67
2022/07/22 00:36:50;;;;;;;0.00;0.00;;;16.40;84.10;;;;;;5052654;28;20131;-67
2022/07/22 00:39:16;;;;;;;0.00;0.00;;;16.40;84.30;;;;;;5067583;28;20452;-67
2022/07/22 00:41:41;;;;;;;0.00;0.00;;;16.40;84.50;;;;;;5069125;28;20036;-67
2022/07/22 00:44:08;;;;;;;0.20;0.20;;;16.40;84.40;;;;;;5057519;28;20040;-67
2022/07/22 00:46:34;;;;;;;0.10;0.10;;;16.40;84.40;;;;;;5052212;28;20572;-67
2022/07/22 00:49:01;;;;;;;0.00;0.00;;;16.50;84.40;;;;;;5058873;28;20045;-67
2022/07/22 00:51:27;;;;;;;0.00;0.00;;;16.50;84.30;;;;;;5060118;28;20045;-67
2022/07/22 00:53:56;;;;;;;0.00;0.00;;;16.50;84.30;;;;;;5057870;28;20043;-66
2022/07/22 00:56:23;;;;;;;0.00;0.00;;;16.60;84.20;;;;;;5061423;28;20052;-67
2022/07/22 00:58:51;;;;;;;0.00;0.00;;;16.60;84.20;;;;;;5054864;28;20075;-67
2022/07/22 01:01:17;;;;;;;0.00;0.00;;;16.60;84.10;;;;;;5053908;28;21313;-67
2022/07/22 01:03:43;;;;;;;0.00;0.00;;;16.70;84.10;;;;;;5055244;28;20048;-67
2022/07/22 01:06:09;;;;;;;0.00;0.00;;;16.60;83.90;;;;;;5057355;28;20171;-67
2022/07/22 01:08:35;;;;;;;0.00;0.00;;;16.70;83.70;;;;;;5055533;28;20037;-67
2022/07/22 01:11:16;;;;;;;0.00;0.00;;;16.70;83.60;;;;;;5060093;28;20067;-67
2022/07/22 01:13:42;;;;;;;0.00;0.00;;;16.80;83.50;;;;;;5056954;28;20052;-67
2022/07/22 01:16:09;;;;;;;0.00;0.00;;;16.60;83.00;;;;;;5056791;28;20052;-67
2022/07/22 01:18:36;;;;;;;0.00;0.00;;;16.70;83.00;;;;;;5055931;28;20059;-67
2022/07/22 01:21:03;;;;;;;0.03;0.03;;;16.70;82.80;;;;;;5057219;28;20037;-67
2022/07/22 01:23:28;;;;;;;0.00;0.00;;;16.60;82.70;;;;;;5053861;28;20091;-67
2022/07/22 01:25:54;;;;;;;0.00;0.00;;;16.60;82.60;;;;;;5057997;28;20037;-67
2022/07/22 01:28:20;;;;;;;0.00;0.00;;;16.60;81.60;;;;;;5059062;28;20057;-67
2022/07/22 01:30:46;;;;;;;0.00;0.00;;;16.50;81.80;;;;;;5057586;28;20029;-67
2022/07/22 01:33:11;;;;;;;0.00;0.00;;;16.50;81.70;;;;;;5054158;28;20508;-67
2022/07/22 01:35:37;;;;;;;0.08;0.08;;;16.50;81.50;;;;;;5054935;28;20033;-67
2022/07/22 01:38:03;;;;;;;0.00;0.00;;;16.50;81.60;;;;;;5053811;28;20039;-67
2022/07/22 01:40:28;;;;;;;0.00;0.00;;;16.50;81.40;;;;;;5054256;28;20047;-67
2022/07/22 01:42:54;;;;;;;0.00;0.00;;;16.50;81.40;;;;;;5057763;28;20448;-67
2022/07/22 01:45:19;;;;;;;0.00;0.00;;;16.50;81.50;;;;;;5059678;28;20457;-67
2022/07/22 01:47:45;;;;;;;0.00;0.00;;;16.50;81.20;;;;;;5060483;28;20068;-67
2022/07/22 01:50:11;;;;;;;0.00;0.00;;;16.50;80.80;;;;;;5064454;28;20043;-67
2022/07/22 01:52:38;;;;;;;0.00;0.00;;;16.50;80.50;;;;;;5060985;28;20419;-67
2022/07/22 01:55:06;;;;;;;0.00;0.00;;;16.50;80.60;;;;;;5059482;28;20480;-67
2022/07/22 01:57:32;;;;;;;0.00;0.00;;;16.50;80.20;;;;;;5060795;28;20040;-67
2022/07/22 01:59:57;;;;;;;0.52;0.52;;;16.50;79.60;;;;;;5060061;28;20048;-67
2022/07/22 02:02:23;;;;;;;0.13;0.13;;;16.50;79.70;;;;;;5047631;28;20051;-67
2022/07/22 02:04:49;;;;;;;0.00;0.00;;;16.40;79.30;;;;;;5057569;28;20397;-67
2022/07/22 02:07:14;;;;;;;0.00;0.00;;;16.40;79.60;;;;;;5061437;28;20048;-67
2022/07/22 02:09:40;;;;;;;0.00;0.00;;;16.30;79.60;;;;;;5060124;28;20128;-67
2022/07/22 02:12:06;;;;;;;0.00;0.00;;;16.30;80.10;;;;;;5058681;28;20413;-67
2022/07/22 02:14:32;;;;;;;0.00;0.00;;;16.30;80.20;;;;;;5053398;28;20095;-67
2022/07/22 02:16:57;;;;;;;0.00;0.00;;;16.30;80.40;;;;;;5056749;28;20425;-67
2022/07/22 02:19:23;;;;;;;0.00;0.00;;;16.30;80.10;;;;;;5052916;28;20045;-67
2022/07/22 02:21:48;;;;;;;0.00;0.00;;;16.30;80.00;;;;;;5056268;28;20401;-66
2022/07/22 02:24:14;;;;;;;0.00;0.00;;;16.30;80.20;;;;;;5056877;28;20127;-67
2022/07/22 02:26:40;;;;;;;0.00;0.00;;;16.30;79.70;;;;;;5067496;28;20040;-67
2022/07/22 02:29:05;;;;;;;0.00;0.00;;;16.30;79.30;;;;;;5068201;28;20401;-67
2022/07/22 02:31:31;;;;;;;0.00;0.00;;;16.30;79.50;;;;;;5052886;28;20041;-67
2022/07/22 02:33:56;;;;;;;0.00;0.00;;;16.30;79.10;;;;;;5058512;28;20214;-67
2022/07/22 02:36:22;;;;;;;0.75;0.52;;;16.30;79.00;;;;;;5068318;28;20076;-67
2022/07/22 02:38:48;;;;;;;0.00;0.00;;;16.20;79.00;;;;;;5056295;28;20079;-67
2022/07/22 02:41:13;;;;;;;0.00;0.00;;;16.20;79.10;;;;;;5062003;28;20106;-67
2022/07/22 02:43:39;;;;;;;0.05;0.05;;;16.10;79.40;;;;;;5054320;28;20033;-67
2022/07/22 02:46:05;;;;;;;0.00;0.00;;;16.20;79.70;;;;;;5054304;28;20040;-67
2022/07/22 02:48:31;;;;;;;0.00;0.00;;;16.20;79.80;;;;;;5054134;28;20402;-67
2022/07/22 02:50:56;;;;;;;0.10;0.10;;;16.10;79.60;;;;;;5051371;28;20048;-67
2022/07/22 02:53:22;;;;;;;0.00;0.00;;;16.10;79.50;;;;;;5052363;28;20413;-67
2022/07/22 02:55:48;;;;;;;0.00;0.00;;;16.10;79.60;;;;;;5069213;28;20119;-67
2022/07/22 02:58:13;;;;;;;0.00;0.00;;;16.10;79.60;;;;;;5062737;28;20080;-67
2022/07/22 03:00:39;;;;;;;2.92;1.25;;;16.10;80.00;;;;;;5051242;28;20037;-68
2022/07/22 03:03:05;;;;;;;0.00;0.00;;;16.10;80.20;;;;;;5051567;28;20406;-66
2022/07/22 03:05:30;;;;;;;0.00;0.00;;;16.10;80.00;;;;;;5058113;28;20037;-66
2022/07/22 03:07:56;;;;;;;0.00;0.00;;;16.10;80.10;;;;;;5058038;28;20148;-67
2022/07/22 03:10:22;;;;;;;0.00;0.00;;;16.10;80.00;;;;;;5057143;28;20044;-67
2022/07/22 03:12:47;;;;;;;0.00;0.00;;;16.00;79.90;;;;;;5056144;28;20037;-67
2022/07/22 03:15:13;;;;;;;0.00;0.00;;;16.10;80.10;;;;;;5052246;28;20515;-67
2022/07/22 03:17:39;;;;;;;0.00;0.00;;;16.10;80.10;;;;;;5060333;28;20037;-67
2022/07/22 03:20:07;;;;;;;0.00;0.00;;;16.20;80.10;;;;;;5061866;28;20049;-66
2022/07/22 03:22:33;;;;;;;0.00;0.00;;;16.20;80.10;;;;;;5060855;28;20051;-67
2022/07/22 03:24:59;;;;;;;0.00;0.00;;;16.30;80.10;;;;;;5052884;28;20161;-67
2022/07/22 03:27:25;;;;;;;0.00;0.00;;;16.30;80.00;;;;;;5064087;28;20052;-67
2022/07/22 03:29:51;;;;;;;0.00;0.00;;;16.40;80.00;;;;;;5067043;28;20552;-66
2022/07/22 03:32:16;;;;;;;0.00;0.00;;;16.40;80.00;;;;;;5063277;28;20127;-67
2022/07/22 03:34:42;;;;;;;0.00;0.00;;;16.50;79.80;;;;;;5067848;28;20033;-67
2022/07/22 03:37:08;;;;;;;0.00;0.00;;;16.50;79.40;;;;;;5051942;28;20506;-67
2022/07/22 03:39:33;;;;;;;0.00;0.00;;;16.40;79.30;;;;;;5056898;28;20120;-66
2022/07/22 03:41:59;;;;;;;0.00;0.00;;;16.40;79.50;;;;;;5067109;28;20139;-67
2022/07/22 03:44:25;;;;;;;0.00;0.00;;;16.40;79.30;;;;;;5065948;28;20040;-67
2022/07/22 03:46:53;;;;;;;0.10;0.10;;;16.30;79.10;;;;;;5052664;28;20055;-67
2022/07/22 03:49:19;;;;;;;0.00;0.00;;;16.30;79.20;;;;;;5050711;28;20049;-67
2022/07/22 03:51:45;;;;;;;0.00;0.00;;;16.30;79.30;;;;;;5032527;28;20486;-67
2022/07/22 03:54:10;;;;;;;0.00;0.00;;;16.30;79.00;;;;;;5049920;28;20029;-67
2022/07/22 03:56:36;;;;;;;0.00;0.00;;;16.20;78.70;;;;;;5054288;28;20041;-67
2022/07/22 03:59:02;;;;;;;0.00;0.00;;;16.20;78.80;;;;;;5067569;28;20037;-67
2022/07/22 04:01:27;;;;;;;0.00;0.00;;;16.20;78.80;;;;;;5062399;28;20412;-67
2022/07/22 04:03:53;;;;;;;0.00;0.00;;;16.20;78.70;;;;;;5058847;28;20053;-67
2022/07/22 04:06:18;;;;;;;0.00;0.00;;;16.10;78.80;;;;;;5048807;28;20044;-67
2022/07/22 04:08:44;;;;;;;0.00;0.00;;;16.20;79.10;;;;;;5068291;28;20156;-67
2022/07/22 04:11:10;;;;;;;0.00;0.00;;;16.20;79.10;;;;;;5065903;28;20052;-67
2022/07/22 04:13:36;;;;;;;0.00;0.00;;;16.20;79.30;;;;;;5061348;28;20045;-67
2022/07/22 04:16:01;;;;;;;0.25;0.25;;;16.30;79.30;;;;;;5048945;28;20040;-67
2022/07/22 04:18:29;;;;;;;0.00;0.00;;;16.30;79.40;;;;;;5065190;28;20040;-67
2022/07/22 04:20:54;;;;;;;0.00;0.00;;;16.30;79.50;;;;;;5065112;28;20041;-67
2022/07/22 04:23:20;;;;;;;0.00;0.00;;;16.30;79.60;;;;;;5066950;28;20055;-67
2022/07/22 04:25:46;;;;;;;0.00;0.00;;;16.40;79.70;;;;;;5052174;28;20047;-67
2022/07/22 04:28:11;;;;;;;0.00;0.00;;;16.40;79.70;;;;;;5049417;28;20051;-67
2022/07/22 04:30:37;;;;;;;0.00;0.00;;;16.40;79.70;;;;;;5065699;28;20048;-67
2022/07/22 04:33:03;;;;;;;0.00;0.00;;;16.40;79.70;;;;;;5057306;28;20045;-67
2022/07/22 04:35:28;;;;;;;0.00;0.00;;;16.50;79.80;;;;;;5048706;28;20049;-67
2022/07/22 04:37:54;;;;;;;0.00;0.00;;;16.50;79.80;;;;;;5061273;28;20041;-69
2022/07/22 04:40:19;;;;;;;0.00;0.00;;;16.50;79.70;;;;;;5048679;28;20110;-66
2022/07/22 04:42:45;;;;;;;0.00;0.00;;;16.50;79.50;;;;;;5055281;28;20129;-66
2022/07/22 04:45:11;;;;;;;0.00;0.00;;;16.50;79.50;;;;;;5060500;28;20140;-66
2022/07/22 04:47:37;;;;;;;0.00;0.00;;;16.50;79.40;;;;;;5053814;28;20041;-66
2022/07/22 04:50:03;;;;;;;0.00;0.00;;;16.50;79.30;;;;;;5067971;28;20052;-66
2022/07/22 04:52:37;;;;;;;0.00;0.00;;;16.40;78.80;;;;;;5056459;28;20103;-66
2022/07/22 04:55:03;;;;;;;0.10;0.10;;;16.50;79.10;;;;;;5057984;28;20476;-66
2022/07/22 04:57:29;;;;;;;0.00;0.00;;;16.50;79.10;;;;;;5052477;28;20041;-66
2022/07/22 04:59:54;;;;;;;0.00;0.00;;;16.50;79.30;;;;;;5048416;28;20060;-66
2022/07/22 05:02:20;;;;;;;0.00;0.00;;;16.60;79.60;;;;;;5054613;28;20049;-66
2022/07/22 05:04:46;;;;;;;0.00;0.00;;;16.60;79.90;;;;;;5048557;28;20049;-66
2022/07/22 05:07:12;;;;;;;0.00;0.00;;;16.60;79.80;;;;;;5054299;28;20048;-66
2022/07/22 05:09:37;;;;;;;0.03;0.03;;;16.60;79.70;;;;;;5046493;28;20136;-66
2022/07/22 05:12:04;;;;;;;0.00;0.00;;;16.60;79.70;;;;;;5057157;28;20420;-66
2022/07/22 05:14:30;;;;;;;0.00;0.00;;;16.60;79.50;;;;;;5056195;28;20044;-65
2022/07/22 05:16:55;;;;;;;0.00;0.00;;;16.60;79.20;;;;;;5059265;28;20041;-66
2022/07/22 05:19:21;;;;;;;0.00;0.00;;;16.60;79.00;;;;;;5063863;28;20057;-66
2022/07/22 05:21:47;;;;;;;0.00;0.00;;;16.70;79.10;;;;;;5051645;28;20052;-66
2022/07/22 05:24:13;;;;;;;0.00;0.00;;;16.70;79.20;;;;;;5062896;28;20053;-67
2022/07/22 05:26:38;;;;;;;0.00;0.00;;;16.80;79.00;;;;;;5061608;28;20048;-67
2022/07/22 05:29:04;;;;;;;0.00;0.00;;;16.80;78.80;;;;;;5070211;28;20106;-67
2022/07/22 05:31:30;;;;;;;0.00;0.00;;;16.80;78.60;;;;;;5067710;28;20064;-67
2022/07/22 05:33:55;;;;;;;0.00;0.00;;;16.90;78.90;;;;;;5051833;28;20095;-66
2022/07/22 05:36:21;;;;;;;0.00;0.00;;;16.90;78.60;;;;;;5052857;28;20041;-66
2022/07/22 05:38:47;;;;;;;0.00;0.00;;;16.90;78.40;;;;;;5059060;28;20896;-66
2022/07/22 05:41:12;;;;;;;0.00;0.00;;;16.90;77.30;;;;;;5060627;28;20033;-67
2022/07/22 05:43:38;;;;;;;0.00;0.00;;;16.90;77.40;;;;;;5070353;28;20052;-66
2022/07/22 05:46:04;;;;;;;0.00;0.00;;;16.90;76.10;;;;;;5071759;28;20037;-66
2022/07/22 05:48:30;;;;;;;0.10;0.10;;;16.90;75.80;;;;;;5057956;28;20571;-67
2022/07/22 05:50:56;;;;;;;0.10;0.10;;;16.90;75.20;;;;;;5060374;28;20036;-67
2022/07/22 05:53:21;;;;;;;0.00;0.00;;;16.90;74.60;;;;;;5057469;28;20429;-67
2022/07/22 05:55:47;;;;;;;0.00;0.00;;;16.90;75.10;;;;;;5064534;28;20040;-66
2022/07/22 05:58:13;;;;;;;0.00;0.00;;;17.00;75.50;;;;;;5063220;28;20045;-68
2022/07/22 06:00:39;;;;;;;0.00;0.00;;;17.00;75.90;;;;;;5055595;28;20061;-68
2022/07/22 06:03:05;;;;;;;0.00;0.00;;;17.00;75.50;;;;;;5058112;28;20046;-67
2022/07/22 06:05:31;;;;;;;0.00;0.00;;;17.00;75.90;;;;;;5052626;28;20466;-67
2022/07/22 06:07:56;;;;;;;0.00;0.00;;;17.10;75.80;;;;;;5061243;28;20123;-67
2022/07/22 06:10:22;;;;;;;0.00;0.00;;;17.10;76.00;;;;;;5063138;28;20032;-67
2022/07/22 06:12:48;;;;;;;0.00;0.00;;;17.00;73.90;;;;;;5060315;28;20456;-67
2022/07/22 06:15:13;;;;;;;0.00;0.00;;;17.10;73.90;;;;;;5063035;28;20044;-67
2022/07/22 06:17:39;;;;;;;0.00;0.00;;;17.00;74.00;;;;;;5057372;28;20048;-64
2022/07/22 06:20:05;;;;;;;0.00;0.00;;;17.20;76.70;;;;;;5067857;28;20098;-64
2022/07/22 06:22:31;;;;;;;0.00;0.00;;;17.60;79.30;;;;;;5058052;28;20040;-67
2022/07/22 06:24:57;;;;;;;0.00;0.00;;;17.70;74.70;;;;;;5061018;28;20056;-67
2022/07/22 06:27:22;;;;;;;0.00;0.00;;;17.60;74.20;;;;;;5069958;28;20131;-67
2022/07/22 06:29:48;;;;;;;0.00;0.00;;;17.60;74.90;;;;;;5055777;28;20050;-67
2022/07/22 06:32:14;;;;;;;0.00;0.00;;;17.60;74.10;;;;;;5052398;28;20040;-67
2022/07/22 06:34:39;;;;;;;0.00;0.00;;;17.50;74.80;;;;;;5048732;28;20045;-67
2022/07/22 06:37:05;;;;;;;0.00;0.00;;;17.50;74.40;;;;;;5051337;28;20049;-67
2022/07/22 06:39:31;;;;;;;0.00;0.00;;;17.40;74.60;;;;;;5050110;28;20075;-68
2022/07/22 06:41:56;;;;;;;0.00;0.00;;;17.40;74.90;;;;;;5050585;28;20036;-67
2022/07/22 06:44:22;;;;;;;0.00;0.00;;;17.30;75.20;;;;;;5059268;28;20061;-67
2022/07/22 06:46:48;;;;;;;0.00;0.00;;;17.30;75.40;;;;;;5052959;28;20043;-67
2022/07/22 06:49:13;;;;;;;0.55;0.55;;;17.30;75.50;;;;;;5049347;28;20110;-68
2022/07/22 06:51:39;;;;;;;0.00;0.00;;;17.30;75.30;;;;;;5054224;28;20043;-68
2022/07/22 06:54:04;;;;;;;0.00;0.00;;;17.50;76.50;;;;;;5052979;28;20045;-67
2022/07/22 06:56:30;;;;;;;0.00;0.00;;;17.40;75.40;;;;;;5056949;28;20045;-68
2022/07/22 06:58:56;;;;;;;0.00;0.00;;;17.50;75.60;;;;;;5053210;28;20040;-68
2022/07/22 07:01:21;;;;;;;0.00;0.00;;;17.50;75.90;;;;;;5053564;28;20045;-68
2022/07/22 07:03:47;;;;;;;0.00;0.00;;;17.60;76.00;;;;;;5055152;28;20060;-68
2022/07/22 07:06:13;;;;;;;0.00;0.00;;;17.50;75.10;;;;;;5057522;28;20046;-69
2022/07/22 07:08:39;;;;;;;0.00;0.00;;;17.60;75.60;;;;;;5057756;28;20044;-67
2022/07/22 07:11:05;;;;;;;0.00;0.00;;;17.60;75.80;;;;;;5053368;28;20041;-69
2022/07/22 07:13:31;;;;;;;0.00;0.00;;;17.70;76.00;;;;;;5052956;28;20072;-69
2022/07/22 07:15:57;;;;;;;0.00;0.00;;;17.70;75.70;;;;;;5063512;28;20406;-70
2022/07/22 07:18:22;;;;;;;0.00;0.00;;;17.70;75.40;;;;;;5053314;28;20048;-70
2022/07/22 07:20:48;;;;;;;0.00;0.00;;;17.70;75.60;;;;;;5055532;28;20510;-70
2022/07/22 07:23:14;;;;;;;0.00;0.00;;;17.80;74.90;;;;;;5064597;28;20033;-70
2022/07/22 07:25:40;;;;;;;0.00;0.00;;;17.80;75.00;;;;;;5057323;28;20484;-70
2022/07/22 07:28:06;;;;;;;0.00;0.00;;;17.80;75.10;;;;;;5064149;28;20051;-70
2022/07/22 07:30:32;;;;;;;0.00;0.00;;;17.80;75.10;;;;;;5050704;28;20039;-70
2022/07/22 07:33:00;;;;;;;0.00;0.00;;;17.80;75.30;;;;;;5056451;28;20512;-70
2022/07/22 07:35:26;;;;;;;0.00;0.00;;;17.80;75.30;;;;;;5049986;28;20054;-70
2022/07/22 07:37:53;;;;;;;0.00;0.00;;;17.70;73.40;;;;;;5061344;28;20063;-70
2022/07/22 07:40:19;;;;;;;0.00;0.00;;;17.60;73.60;;;;;;5060284;28;20063;-70
2022/07/22 07:42:44;;;;;;;0.00;0.00;;;17.70;74.00;;;;;;5053682;28;20041;-69
2022/07/22 07:45:11;;;;;;;0.00;0.00;;;17.60;73.60;;;;;;5060067;28;20041;-69
2022/07/22 07:47:36;;;;;;;0.00;0.00;;;17.60;74.70;;;;;;5064663;28;20045;-70
2022/07/22 07:50:05;;;;;;;0.00;0.00;;;17.60;75.40;;;;;;5062958;28;20393;-67
2022/07/22 07:52:30;;;;;;;0.00;0.00;;;17.60;75.50;;;;;;5061564;28;20032;-70
2022/07/22 07:54:56;;;;;;;0.00;0.00;;;17.60;75.00;;;;;;5055229;28;20375;-70
2022/07/22 07:57:22;;;;;;;0.00;0.00;;;17.70;75.20;;;;;;5055769;28;20048;-70
2022/07/22 07:59:48;;;;;;;0.00;0.00;;;17.70;75.40;;;;;;5061367;28;20033;-70
2022/07/22 08:02:13;;;;;;;0.00;0.00;;;17.70;74.80;;;;;;5052776;28;20900;-69
2022/07/22 08:04:39;;;;;;;0.00;0.00;;;17.60;74.90;;;;;;5062211;28;20506;-70
2022/07/22 08:07:06;;;;;;;0.47;0.47;;;17.70;75.20;;;;;;5064727;28;20047;-70
2022/07/22 08:09:32;;;;;;;0.00;0.00;;;17.70;74.50;;;;;;5058005;28;20048;-69
2022/07/22 08:11:58;;;;;;;0.00;0.00;;;17.70;74.80;;;;;;5063962;28;20060;-70
2022/07/22 08:14:25;;;;;;;0.00;0.00;;;17.70;74.70;;;;;;5062086;28;20863;-71
2022/07/22 08:16:51;;;;;;;0.00;0.00;;;17.70;74.90;;;;;;5061327;28;20171;-69
2022/07/22 08:19:16;;;;;;;0.00;0.00;;;17.70;74.60;;;;;;5053344;28;20573;-70
2022/07/22 08:21:42;;;;;;;0.00;0.00;;;17.80;74.60;;;;;;5060935;28;20063;-69
2022/07/22 08:24:09;;;;;;;0.00;0.00;;;17.80;74.40;;;;;;5063674;28;20045;-70
2022/07/22 08:26:35;;;;;;;0.00;0.00;;;17.90;74.80;;;;;;5062693;28;20055;-69
2022/07/22 08:29:01;;;;;;;0.00;0.00;;;18.00;74.70;;;;;;5058889;28;20040;-69
2022/07/22 08:31:28;;;;;;;0.00;0.00;;;18.00;75.00;;;;;;5058182;28;20528;-69
2022/07/22 08:33:54;;;;;;;0.28;0.28;;;18.10;74.00;;;;;;5068518;28;20045;-69
2022/07/22 08:36:19;;;;;;;0.00;0.00;;;18.10;74.40;;;;;;5052863;28;20045;-69
2022/07/22 08:38:45;;;;;;;0.00;0.00;;;18.20;73.30;;;;;;5055517;28;20036;-70
2022/07/22 08:41:13;;;;;;;0.00;0.00;;;18.20;71.70;;;;;;5067335;28;20040;-69
2022/07/22 08:43:41;;;;;;;0.00;0.00;;;18.20;70.10;;;;;;5069034;28;20048;-69
2022/07/22 08:46:07;;;;;;;0.00;0.00;;;18.20;69.80;;;;;;5068968;28;20493;-67
2022/07/22 08:48:33;;;;;;;0.00;0.00;;;18.30;71.10;;;;;;5068895;28;20047;-67
2022/07/22 08:50:58;;;;;;;0.00;0.00;;;18.20;69.30;;;;;;5067981;28;20044;-68
2022/07/22 08:53:24;;;;;;;0.00;0.00;;;18.20;69.30;;;;;;5068855;28;20041;-68
2022/07/22 08:55:50;;;;;;;0.00;0.00;;;18.20;70.10;;;;;;5059430;28;20045;-68
2022/07/22 08:58:17;;;;;;;0.00;0.00;;;18.30;71.00;;;;;;5052645;28;20079;-68
2022/07/22 09:00:42;;;;;;;0.00;0.00;;;18.20;68.90;;;;;;5052700;28;20045;-69
2022/07/22 09:03:23;;;;;;;0.80;0.60;;;18.30;67.20;;;;;;5053002;28;20106;-68
2022/07/22 09:05:50;;;;;;;0.00;0.00;;;18.20;67.10;;;;;;5052931;28;20037;-68
2022/07/22 09:08:16;;;;;;;0.00;0.00;;;18.10;65.80;;;;;;5052542;28;20041;-68
2022/07/22 09:10:42;;;;;;;0.00;0.00;;;18.10;66.90;;;;;;5062054;28;20112;-67
2022/07/22 09:13:09;;;;;;;0.00;0.00;;;18.10;65.80;;;;;;5059604;28;20061;-68
2022/07/22 09:15:46;;;;;;;0.00;0.00;;;18.10;67.90;;;;;;5062611;28;20041;-68
2022/07/22 09:18:12;;;;;;;0.00;0.00;;;18.10;66.90;;;;;;5052945;28;20037;-68
2022/07/22 09:20:38;;;;;;;0.00;0.00;;;18.10;67.40;;;;;;5053771;28;20028;-67
2022/07/22 09:23:15;;;;;;;0.00;0.00;;;18.10;67.90;;;;;;5055614;28;20045;-68
2022/07/22 09:25:41;;;;;;;0.00;0.00;;;18.10;68.00;;;;;;5065458;28;20040;-68
2022/07/22 09:28:07;;;;;;;0.00;0.00;;;18.10;68.30;;;;;;5065447;28;20048;-68
2022/07/22 09:30:38;;;;;;;0.00;0.00;;;18.10;69.50;;;;;;5053206;28;20041;-68
2022/07/22 09:33:04;;;;;;;;;;;18.10;70.30;;;;;;5085132;28;20098;-68
2022/07/22 09:35:31;;;;;;;0.00;0.00;;;18.10;70.50;;;;;;5065148;28;19996;-68
2022/07/22 09:38:03;;;;;;;0.00;0.00;;;18.10;70.30;;;;;;5070764;28;20070;-69
2022/07/22 09:40:32;;;;;;;0.00;0.00;;;18.10;70.70;;;;;;5062334;28;20066;-68
2022/07/22 09:43:04;;;;;;;0.00;0.00;;;18.10;70.70;;;;;;5051067;28;20053;-69
2022/07/22 09:45:31;;;;;;;0.00;0.00;;;18.10;69.50;;;;;;5063101;28;20086;-69
2022/07/22 09:47:59;;;;;;;0.00;0.00;;;18.00;69.70;;;;;;5063355;28;20629;-68
2022/07/22 09:50:28;;;;;;;0.00;0.00;;;18.10;70.60;;;;;;5059398;28;20041;-69
2022/07/22 09:52:56;;;;;;;0.00;0.00;;;18.10;70.90;;;;;;5059719;28;20029;-68
2022/07/22 09:55:23;;;;;;;0.00;0.00;;;18.20;70.00;;;;;;5055379;28;20040;-69
2022/07/22 09:57:51;;;;;;;0.00;0.00;;;18.10;68.30;;;;;;5064145;28;20036;-67
2022/07/22 10:00:20;;;;;;;0.00;0.00;;;18.10;69.40;;;;;;5066731;28;20056;-69
2022/07/22 10:02:51;;;;;;;0.00;0.00;;;18.20;69.80;;;;;;5062347;28;20049;-68
2022/07/22 10:05:19;;;;;;;0.00;0.00;;;18.20;69.10;;;;;;5037636;28;20497;-68
2022/07/22 10:07:46;;;;;;;0.00;0.00;;;18.20;68.40;;;;;;5055911;28;20774;-68
2022/07/22 10:10:13;;;;;;;0.00;0.00;;;18.30;69.50;;;;;;5069134;28;20040;-69
2022/07/22 10:12:40;;;;;;;0.00;0.00;;;18.30;68.50;;;;;;5069496;28;20044;-68
2022/07/22 10:15:07;;;;;;;0.00;0.00;;;18.30;67.20;;;;;;5069470;28;20045;-68
2022/07/22 10:17:37;;;;;;;0.00;0.00;;;18.40;68.90;;;;;;5061295;28;20072;-68
2022/07/22 10:20:05;;;;;;;0.00;0.00;;;18.60;68.90;;;;;;5063453;28;20084;-69
2022/07/22 10:22:42;;;;;;;0.00;0.00;;;18.60;68.70;;;;;;5050652;28;20819;-68
2022/07/22 10:25:10;;;;;;;0.00;0.00;;;18.80;69.00;;;;;;5050524;28;20088;-68
2022/07/22 10:28:05;;;;;;;0.00;0.00;;;18.90;68.60;;;;;;5064944;28;20041;-69
2022/07/22 10:30:38;;;;;;;0.00;0.00;;;19.00;67.40;;;;;;5060638;28;20383;-68
2022/07/22 10:33:17;;;;;;;0.00;0.00;;;18.90;65.90;;;;;;5064493;28;21075;-68
2022/07/22 10:35:42;;;;;;;0.25;0.25;;;18.90;66.90;;;;;;5052990;28;20037;-69
2022/07/22 10:38:10;;;;;;;0.00;0.00;;;19.00;65.80;;;;;;5053821;28;20043;-69
2022/07/22 10:41:00;;;;;;;0.00;0.00;;;19.00;65.10;;;;;;5051162;28;20048;-69
2022/07/22 10:43:27;;;;;;;0.00;0.00;;;19.00;65.80;;;;;;5052638;28;20111;-69
2022/07/22 10:45:57;;;;;;;0.00;0.00;;;19.00;66.00;;;;;;5060173;28;20045;-69
2022/07/22 10:48:43;;;;;;;0.10;0.10;;;19.00;64.60;;;;;;5051301;28;20521;-68
2022/07/22 10:51:14;;;;;;;0.00;0.00;;;19.10;65.20;;;;;;5056332;28;20044;-68
2022/07/22 10:53:43;;;;;;;0.00;0.00;;;19.10;65.20;;;;;;5052962;28;20076;-67
2022/07/22 10:56:18;;;;;;;0.00;0.00;;;19.10;66.30;;;;;;5058769;28;20041;-68
2022/07/22 10:59:09;;;;;;;0.00;0.00;;;19.00;63.70;;;;;;5061613;28;20061;-69
2022/07/22 11:01:35;;;;;;;0.00;0.00;;;19.00;64.70;;;;;;5033004;28;20068;-68
2022/07/22 11:04:14;;;;;;;0.00;0.00;;;18.90;63.80;;;;;;5058245;28;20052;-68
2022/07/22 11:06:40;;;;;;;0.00;0.00;;;18.90;64.10;;;;;;5058591;28;20086;-68
2022/07/22 11:09:08;;;;;;;0.00;0.00;;;19.00;65.10;;;;;;5066749;28;20033;-69
2022/07/22 11:11:47;;;;;;;0.00;0.00;;;19.00;65.70;;;;;;5050348;28;20063;-69
2022/07/22 11:14:16;;;;;;;0.00;0.00;;;19.00;64.30;;;;;;5055340;28;20902;-69
2022/07/22 11:16:42;;;;;;;0.00;0.00;;;19.00;64.10;;;;;;5054201;28;20061;-69
2022/07/22 11:19:09;;;;;;;0.00;0.00;;;18.90;62.60;;;;;;5050442;28;20044;-69
2022/07/22 11:21:35;;;;;;;0.00;0.00;;;19.00;63.80;;;;;;5049598;28;20045;-71
2022/07/22 11:24:03;;;;;;;0.00;0.00;;;19.00;61.70;;;;;;5061176;28;20513;-70
2022/07/22 11:26:38;;;;;;;0.00;0.00;;;19.00;62.80;;;;;;5061581;28;20056;-70
2022/07/22 11:29:04;;;;;;;0.00;0.00;;;18.90;61.40;;;;;;5056223;28;20096;-70
2022/07/22 11:31:29;;;;;;;0.00;0.00;;;19.00;63.00;;;;;;5056664;28;20102;-70
2022/07/22 11:34:15;;;;;;;0.00;0.00;;;19.10;63.60;;;;;;5052079;28;20045;-70
2022/07/22 11:36:43;;;;;;;0.00;0.00;;;19.00;63.30;;;;;;5053698;28;20056;-70
2022/07/22 11:39:10;;;;;;;0.00;0.00;;;19.10;62.00;;;;;;5065032;28;20061;-70
2022/07/22 11:41:37;;;;;;;0.00;0.00;;;19.10;62.40;;;;;;5069305;28;20044;-70
2022/07/22 11:44:03;;;;;;;0.00;0.00;;;19.10;62.80;;;;;;5052952;28;20506;-71
2022/07/22 11:46:36;;;;;;;0.00;0.00;;;19.20;63.30;;;;;;5058618;28;20041;-70
2022/07/22 11:49:01;;;;;;;0.00;0.00;;;19.20;63.10;;;;;;5057461;28;20057;-70
2022/07/22 11:51:30;;;;;;;0.00;0.00;;;19.10;62.50;;;;;;5057952;28;20044;-70
2022/07/22 11:53:56;;;;;;;0.00;0.00;;;19.20;62.80;;;;;;5051354;28;20533;-70
2022/07/22 11:56:22;;;;;;;0.00;0.00;;;19.20;61.50;;;;;;5068930;28;20044;-70
2022/07/22 11:58:49;;;;;;;0.00;0.00;;;19.10;60.40;;;;;;5062130;28;20082;-70
2022/07/22 12:01:17;;;;;;;0.00;0.00;;;19.10;60.00;;;;;;5054658;28;20127;-70
2022/07/22 12:03:55;;;;;;;0.00;0.00;;;19.10;62.10;;;;;;5063437;28;20048;-70
2022/07/22 12:06:23;;;;;;;0.00;0.00;;;19.20;61.60;;;;;;5056050;28;20097;-70
2022/07/22 12:08:52;;;;;;;0.30;0.30;;;19.10;61.10;;;;;;5059635;28;20109;-70
2022/07/22 12:11:19;;;;;;;0.00;0.00;;;19.10;60.50;;;;;;5052074;28;20064;-70
2022/07/22 12:13:46;;;;;;;0.00;0.00;;;19.10;60.60;;;;;;5048664;28;20406;-70
2022/07/22 12:16:26;;;;;;;0.00;0.00;;;19.20;60.20;;;;;;5055384;28;20045;-69
2022/07/22 12:19:02;;;;;;;0.00;0.00;;;19.30;60.70;;;;;;5063862;28;20053;-70
2022/07/22 12:21:32;;;;;;;0.00;0.00;;;19.40;60.50;;;;;;5050685;28;20051;-70
2022/07/22 12:24:02;;;;;;;0.00;0.00;;;19.40;60.50;;;;;;5063856;28;20649;-69
2022/07/22 12:26:46;;;;;;;0.00;0.00;;;19.40;59.00;;;;;;5057781;28;20094;-70
2022/07/22 12:29:29;;;;;;;0.00;0.00;;;19.40;60.50;;;;;;5062976;28;20072;-70
2022/07/22 12:32:00;;;;;;;0.60;0.60;;;19.40;60.30;;;;;;5047366;28;20490;-70
2022/07/22 12:34:38;;;;;;;0.00;0.00;;;19.40;60.30;;;;;;5059856;28;20072;-70
2022/07/22 12:37:23;;;;;;;0.00;0.00;;;19.30;62.20;;;;;;5061091;28;20336;-70
2022/07/22 12:39:59;;;;;;;0.03;0.03;;;19.40;61.60;;;;;;5068625;28;20402;-70
2022/07/22 12:42:30;;;;;;;0.00;0.00;;;19.30;61.10;;;;;;5068260;28;20040;-71
2022/07/22 12:45:05;;;;;;;0.00;0.00;;;19.40;60.90;;;;;;5068962;28;20040;-70
2022/07/22 12:47:54;;;;;;;0.00;0.00;;;19.50;63.00;;;;;;5050353;28;20482;-69